createdAt,value
2023-02-22T00:00:42.832Z,99447.44
2023-02-22T00:03:15.107Z,99449.38
2023-02-22T00:05:47.237Z,99448.25
2023-02-22T00:08:17.053Z,99448.22
2023-02-22T00:10:45.580Z,99450.28
2023-02-22T00:13:15.753Z,99453.31
2023-02-22T00:15:44.347Z,99449.13
2023-02-22T00:18:14.799Z,99450.88
2023-02-22T00:20:44.695Z,99463.13
2023-02-22T00:23:19.008Z,99462.31
2023-02-22T00:25:47.938Z,99458.16
2023-02-22T00:28:17.061Z,99453.00
2023-02-22T00:30:45.491Z,99448.44
2023-02-22T00:33:15.032Z,99458.22
2023-02-22T00:35:46.740Z,99447.88
2023-02-22T00:38:16.512Z,99450.38
2023-02-22T00:40:45.319Z,99451.34
2023-02-22T00:43:13.567Z,99458.00
2023-02-22T00:45:41.552Z,99458.94
2023-02-22T00:48:10.819Z,99438.28
2023-02-22T00:50:38.928Z,99452.44
2023-02-22T00:53:09.326Z,99457.53
2023-02-22T00:55:38.946Z,99443.38
2023-02-22T00:58:07.654Z,99466.00
2023-02-22T01:00:38.302Z,99471.41
2023-02-22T01:03:07.330Z,99467.13
2023-02-22T01:05:35.856Z,99470.44
2023-02-22T01:08:06.630Z,99468.38
2023-02-22T01:10:36.998Z,99459.66
2023-02-22T01:13:09.048Z,99467.13
2023-02-22T01:15:39.158Z,99466.31
2023-02-22T01:18:08.531Z,99454.66
2023-02-22T01:20:36.485Z,99458.38
2023-02-22T01:23:07.101Z,99451.00
2023-02-22T01:25:37.237Z,99449.78
2023-02-22T01:28:07.115Z,99416.19
2023-02-22T01:30:37.529Z,99456.13
2023-02-22T01:33:07.950Z,99453.22
2023-02-22T01:35:38.558Z,99442.19
2023-02-22T01:38:06.531Z,99446.69
2023-02-22T01:40:38.312Z,99440.38
2023-02-22T01:43:16.023Z,99433.13
2023-02-22T01:45:58.251Z,99448.16
2023-02-22T01:48:31.966Z,99450.19
2023-02-22T01:51:02.463Z,99447.88
2023-02-22T01:53:34.882Z,99448.06
2023-02-22T01:56:05.757Z,99453.41
2023-02-22T01:58:36.714Z,99453.03
2023-02-22T02:01:04.914Z,99458.13
2023-02-22T02:03:37.196Z,99456.09
2023-02-22T02:06:11.914Z,99461.75
2023-02-22T02:08:49.814Z,99454.56
2023-02-22T02:11:21.343Z,99435.03
2023-02-22T02:13:51.935Z,99461.84
2023-02-22T02:16:21.883Z,99464.06
2023-02-22T02:18:50.282Z,99460.22
2023-02-22T02:21:42.136Z,99451.09
2023-02-22T02:24:34.024Z,99456.63
2023-02-22T02:27:19.361Z,99463.41
2023-02-22T02:30:38.125Z,99468.38
2023-02-22T02:33:11.661Z,99474.03
2023-02-22T02:35:50.234Z,99463.41
2023-02-22T02:38:29.326Z,99473.63
2023-02-22T02:41:05.645Z,99466.72
2023-02-22T02:43:38.843Z,99463.53
2023-02-22T02:46:12.211Z,99463.25
2023-02-22T02:48:46.433Z,99470.47
2023-02-22T02:51:16.378Z,99461.31
2023-02-22T02:53:48.502Z,99480.81
2023-02-22T02:56:16.407Z,99482.50
2023-02-22T02:58:49.072Z,99487.66
2023-02-22T03:01:23.718Z,99477.38
2023-02-22T03:04:10.246Z,99481.78
2023-02-22T03:07:04.585Z,99480.91
2023-02-22T03:09:48.995Z,99485.63
2023-02-22T03:12:29.248Z,99485.66
2023-02-22T03:15:09.065Z,99489.59
2023-02-22T03:17:47.408Z,99490.66
2023-02-22T03:20:23.170Z,99492.03
2023-02-22T03:22:58.564Z,99495.44
2023-02-22T03:25:35.034Z,99509.69
2023-02-22T03:28:07.405Z,99506.34
2023-02-22T03:30:39.759Z,99480.19
2023-02-22T03:33:12.491Z,99514.38
2023-02-22T03:35:48.283Z,99514.97
2023-02-22T03:38:21.163Z,99515.91
2023-02-22T03:40:54.477Z,99516.63
2023-02-22T03:43:26.857Z,99512.50
2023-02-22T03:45:55.604Z,99496.00
2023-02-22T03:48:31.452Z,99519.78
2023-02-22T03:51:04.654Z,99515.91
2023-02-22T03:53:37.189Z,99517.06
2023-02-22T03:56:08.847Z,99518.03
2023-02-22T03:58:38.839Z,99475.56
2023-02-22T04:01:07.113Z,99511.06
2023-02-22T04:03:35.001Z,99519.00
2023-02-22T04:06:04.928Z,99511.78
2023-02-22T04:08:32.824Z,99517.19
2023-02-22T04:11:01.453Z,99513.03
2023-02-22T04:13:29.857Z,99513.34
2023-02-22T04:15:57.868Z,99513.63
2023-02-22T04:18:25.777Z,99515.69
2023-02-22T04:20:53.720Z,99523.16
2023-02-22T04:23:23.328Z,99521.63
2023-02-22T04:25:51.218Z,99512.66
2023-02-22T04:28:20.338Z,99504.13
2023-02-22T04:30:48.199Z,99507.22
2023-02-22T04:33:17.138Z,99517.47
2023-02-22T04:35:45.470Z,99523.56
2023-02-22T04:38:13.559Z,99520.38
2023-02-22T04:40:42.873Z,99519.94
2023-02-22T04:43:11.097Z,99516.78
2023-02-22T04:45:39.272Z,99517.78
2023-02-22T04:48:07.395Z,99508.97
2023-02-22T04:50:35.395Z,99495.97
2023-02-22T04:53:03.338Z,99520.88
2023-02-22T04:55:31.294Z,99513.50
2023-02-22T04:58:00.579Z,99514.69
2023-02-22T05:00:28.565Z,99511.75
2023-02-22T05:02:56.450Z,99513.31
2023-02-22T05:05:24.774Z,99507.66
2023-02-22T05:07:53.323Z,99513.06
2023-02-22T05:10:21.748Z,99510.59
2023-02-22T05:12:49.662Z,99508.22
2023-02-22T05:15:20.922Z,99505.22
2023-02-22T05:17:49.011Z,99508.13
2023-02-22T05:20:25.513Z,99511.69
2023-02-22T05:22:53.490Z,99512.50
2023-02-22T05:25:21.613Z,99519.97
2023-02-22T05:27:53.865Z,99523.28
2023-02-22T05:30:26.203Z,99511.16
2023-02-22T05:32:54.574Z,99525.72
2023-02-22T05:35:23.784Z,99523.72
2023-02-22T05:37:52.123Z,99507.00
2023-02-22T05:40:21.721Z,99531.03
2023-02-22T05:42:50.373Z,99531.06
2023-02-22T05:45:19.972Z,99531.75
2023-02-22T05:47:49.365Z,99490.59
2023-02-22T05:50:17.643Z,99530.78
2023-02-22T05:52:45.749Z,99536.31
2023-02-22T05:55:16.297Z,99525.69
2023-02-22T05:57:44.338Z,99544.31
2023-02-22T06:00:17.966Z,99548.31
2023-02-22T06:02:46.004Z,99553.16
2023-02-22T06:05:15.346Z,99555.53
2023-02-22T06:07:43.249Z,99552.78
2023-02-22T06:10:11.234Z,99553.44
2023-02-22T06:12:39.112Z,99559.09
2023-02-22T06:15:07.778Z,99565.72
2023-02-22T06:17:36.314Z,99567.09
2023-02-22T06:20:04.334Z,99559.75
2023-02-22T06:22:33.616Z,99558.13
2023-02-22T06:25:03.727Z,99558.78
2023-02-22T06:27:32.953Z,99570.47
2023-02-22T06:30:01.070Z,99560.97
2023-02-22T06:32:29.131Z,99570.09
2023-02-22T06:34:57.167Z,99573.88
2023-02-22T06:37:25.169Z,99575.66
2023-02-22T06:39:54.512Z,99572.09
2023-02-22T06:42:22.430Z,99577.88
2023-02-22T06:44:51.726Z,99583.13
2023-02-22T06:47:19.840Z,99594.72
2023-02-22T06:49:53.965Z,99588.75
2023-02-22T06:52:22.817Z,99563.53
2023-02-22T06:54:51.527Z,99581.88
2023-02-22T06:57:20.965Z,99583.28
2023-02-22T06:59:48.934Z,99582.84
2023-02-22T07:02:16.947Z,99591.34
2023-02-22T07:04:46.636Z,99591.06
2023-02-22T07:07:14.541Z,99586.31
2023-02-22T07:09:44.223Z,99599.38
2023-02-22T07:12:13.307Z,99588.16
2023-02-22T07:14:42.569Z,99589.66
2023-02-22T07:17:11.711Z,99579.66
2023-02-22T07:19:39.664Z,99577.59
2023-02-22T07:22:07.648Z,99583.91
2023-02-22T07:24:36.179Z,99580.47
2023-02-22T07:27:04.179Z,99581.59
2023-02-22T07:29:33.492Z,99584.16
2023-02-22T07:32:02.853Z,99580.22
2023-02-22T07:34:30.828Z,99580.19
2023-02-22T07:36:58.778Z,99579.72
2023-02-22T07:39:27.167Z,99576.16
2023-02-22T07:41:55.105Z,99565.38
2023-02-22T07:44:23.127Z,99567.06
2023-02-22T07:46:51.470Z,99559.19
2023-02-22T07:49:20.844Z,99564.13
2023-02-22T07:51:48.860Z,99573.28
2023-02-22T07:54:16.783Z,99567.19
2023-02-22T07:56:48.567Z,99540.88
2023-02-22T07:59:17.225Z,99530.97
2023-02-22T08:01:45.178Z,99561.28
2023-02-22T08:04:13.068Z,99563.16
2023-02-22T08:06:42.609Z,99557.72
2023-02-22T08:09:10.547Z,99560.00
2023-02-22T08:11:38.493Z,99567.75
2023-02-22T08:14:06.450Z,99548.13
2023-02-22T08:16:34.377Z,99560.09
2023-02-22T08:19:02.327Z,99556.66
2023-02-22T08:21:30.444Z,99547.09
2023-02-22T08:23:59.826Z,99543.00
2023-02-22T08:26:27.820Z,99548.03
2023-02-22T08:28:55.741Z,99548.50
2023-02-22T08:31:23.904Z,99542.22
2023-02-22T08:33:51.895Z,99542.22
2023-02-22T08:36:19.858Z,99538.63
2023-02-22T08:38:47.770Z,99533.00
2023-02-22T08:41:17.400Z,99540.84
2023-02-22T08:43:45.614Z,99538.06
2023-02-22T08:46:13.579Z,99533.38
2023-02-22T08:48:51.289Z,99526.19
2023-02-22T08:51:19.398Z,99535.81
2023-02-22T08:53:47.510Z,99538.91
2023-02-22T08:56:17.582Z,99532.63
2023-02-22T08:58:45.693Z,99541.94
2023-02-22T09:01:19.306Z,99533.63
2023-02-22T09:03:50.149Z,99534.91
2023-02-22T09:06:18.403Z,99523.03
2023-02-22T09:08:46.388Z,99529.06
2023-02-22T09:11:14.613Z,99535.28
2023-02-22T09:13:44.168Z,99527.53
2023-02-22T09:16:12.171Z,99524.16
2023-02-22T09:18:44.338Z,99526.69
2023-02-22T09:21:13.104Z,99528.81
2023-02-22T09:23:41.619Z,99521.59
2023-02-22T09:26:10.370Z,99530.38
2023-02-22T09:28:38.393Z,99530.91
2023-02-22T09:31:08.835Z,99517.34
2023-02-22T09:33:36.855Z,99508.69
2023-02-22T09:36:06.977Z,99507.22
2023-02-22T09:38:34.863Z,99513.81
2023-02-22T09:41:14.360Z,99516.50
2023-02-22T09:43:49.381Z,99507.59
2023-02-22T09:46:31.873Z,99507.66
2023-02-22T09:49:05.380Z,99482.63
2023-02-22T09:51:41.247Z,99504.09
2023-02-22T09:54:19.308Z,99503.88
2023-02-22T09:56:49.625Z,99499.81
2023-02-22T09:59:24.217Z,99498.44
2023-02-22T10:02:00.485Z,99484.09
2023-02-22T10:04:42.544Z,99494.38
2023-02-22T10:07:19.494Z,99451.00
2023-02-22T10:09:50.485Z,99489.38
2023-02-22T10:12:30.206Z,99486.09
2023-02-22T10:15:31.863Z,99475.69
2023-02-22T10:18:21.043Z,99470.44
2023-02-22T10:20:56.285Z,99470.34
2023-02-22T10:23:31.958Z,99463.72
2023-02-22T10:26:11.064Z,99462.75
2023-02-22T10:31:10.719Z,99449.03
2023-02-22T10:33:57.971Z,99446.53
2023-02-22T10:36:27.976Z,99435.09
2023-02-22T10:39:00.199Z,99439.41
2023-02-22T10:41:31.539Z,99427.47
2023-02-22T10:43:59.725Z,99429.31
2023-02-22T10:46:31.715Z,99413.16
2023-02-22T10:49:07.210Z,99411.94
2023-02-22T10:51:35.380Z,99398.84
2023-02-22T10:54:26.985Z,99405.56
2023-02-22T10:56:57.722Z,99391.25
2023-02-22T10:59:32.836Z,99398.19
2023-02-22T11:02:01.678Z,99386.16
2023-02-22T11:04:47.061Z,99377.06
2023-02-22T11:07:23.898Z,99393.69
2023-02-22T11:09:54.833Z,99376.50
2023-02-22T11:12:29.148Z,99349.19
2023-02-22T11:14:57.863Z,99378.06
2023-02-22T11:17:31.639Z,99368.25
2023-02-22T11:20:01.357Z,99372.56
2023-02-22T11:22:33.316Z,99370.06
2023-02-22T11:25:03.996Z,99343.38
2023-02-22T11:27:38.680Z,99356.47
2023-02-22T11:30:29.085Z,99360.69
2023-02-22T11:33:00.329Z,99360.72
2023-02-22T11:35:37.101Z,99337.97
2023-02-22T11:38:22.199Z,99342.66
2023-02-22T11:41:15.660Z,99353.34
2023-02-22T11:43:44.644Z,99352.09
2023-02-22T11:46:15.847Z,99350.28
2023-02-22T11:48:55.178Z,99340.25
2023-02-22T11:51:36.386Z,99339.63
2023-02-22T11:54:31.291Z,99323.03
2023-02-22T11:57:11.101Z,99320.97
2023-02-22T11:59:49.432Z,99323.44
2023-02-22T12:02:56.369Z,99321.00
2023-02-22T12:05:37.161Z,99324.47
2023-02-22T12:08:20.582Z,99330.34
2023-02-22T12:11:03.434Z,99312.28
2023-02-22T12:13:42.992Z,99316.19
2023-02-22T12:16:22.633Z,99313.19
2023-02-22T12:19:06.132Z,99307.88
2023-02-22T12:21:37.435Z,99308.50
2023-02-22T12:24:14.464Z,99312.59
2023-02-22T12:26:47.201Z,99302.53
2023-02-22T12:29:25.095Z,99299.66
2023-02-22T12:32:00.521Z,99294.34
2023-02-22T12:34:35.925Z,99298.47
2023-02-22T12:37:16.168Z,99286.16
2023-02-22T12:39:54.904Z,99291.47
2023-02-22T12:42:31.046Z,99290.47
2023-02-22T12:45:08.362Z,99285.72
2023-02-22T12:47:43.762Z,99271.84
2023-02-22T12:50:16.051Z,99283.50
2023-02-22T12:52:51.907Z,99282.06
2023-02-22T12:55:25.030Z,99280.03
2023-02-22T12:57:59.718Z,99265.06
2023-02-22T13:00:31.294Z,99264.25
2023-02-22T13:03:02.565Z,99270.19
2023-02-22T13:05:35.936Z,99270.97
2023-02-22T13:08:17.568Z,99268.53
2023-02-22T13:11:15.004Z,99263.84
2023-02-22T13:13:54.580Z,99251.75
2023-02-22T13:16:32.175Z,99253.00
2023-02-22T13:19:04.904Z,99250.13
2023-02-22T13:21:43.058Z,99243.56
2023-02-22T13:24:22.597Z,99256.06
2023-02-22T13:26:55.301Z,99252.78
2023-02-22T13:29:29.808Z,99255.47
2023-02-22T13:32:15.526Z,99243.38
2023-02-22T13:35:14.831Z,99247.25
2023-02-22T13:38:12.468Z,99250.53
2023-02-22T13:41:12.866Z,99251.75
2023-02-22T13:44:07.182Z,99243.38
2023-02-22T13:46:56.039Z,99241.13
2023-02-22T13:49:46.279Z,99246.88
2023-02-22T13:52:19.184Z,99244.78
2023-02-22T13:54:51.513Z,99245.63
2023-02-22T13:57:22.235Z,99242.13
2023-02-22T14:00:26.158Z,99242.34
2023-02-22T14:03:06.766Z,99242.97
2023-02-22T14:05:52.675Z,99248.88
2023-02-22T14:08:42.097Z,99248.50
2023-02-22T14:11:48.757Z,99246.84
2023-02-22T14:14:20.789Z,99252.59
2023-02-22T14:17:24.864Z,99250.94
2023-02-22T14:20:30.023Z,99251.56
2023-02-22T14:22:59.194Z,99249.34
2023-02-22T14:25:33.818Z,99257.03
2023-02-22T14:28:03.375Z,99252.56
2023-02-22T14:30:34.341Z,99245.03
2023-02-22T14:33:04.170Z,99244.97
2023-02-22T14:35:49.435Z,99234.53
2023-02-22T14:38:20.948Z,99246.84
2023-02-22T14:40:50.496Z,99241.50
2023-02-22T14:43:22.380Z,99248.25
2023-02-22T14:45:54.639Z,99246.59
2023-02-22T14:48:39.303Z,99241.88
2023-02-22T14:51:21.799Z,99244.34
2023-02-22T14:53:53.638Z,99250.28
2023-02-22T14:56:25.780Z,99240.50
2023-02-22T14:58:59.384Z,99238.59
2023-02-22T15:01:47.484Z,99247.00
2023-02-22T15:04:25.673Z,99248.84
2023-02-22T15:06:54.917Z,99250.47
2023-02-22T15:09:27.820Z,99255.59
2023-02-22T15:12:13.024Z,99250.28
2023-02-22T15:14:44.761Z,99236.16
2023-02-22T15:17:19.222Z,99251.28
2023-02-22T15:19:49.810Z,99248.63
2023-02-22T15:22:22.854Z,99238.88
2023-02-22T15:24:59.853Z,99250.19
2023-02-22T15:27:28.914Z,99250.81
2023-02-22T15:30:04.600Z,99248.34
2023-02-22T15:32:36.277Z,99252.81
2023-02-22T15:35:16.644Z,99248.69
2023-02-22T15:37:45.496Z,99255.44
2023-02-22T15:40:16.710Z,99247.84
2023-02-22T15:42:46.927Z,99253.78
2023-02-22T15:45:19.904Z,99258.00
2023-02-22T15:47:49.682Z,99254.66
2023-02-22T15:50:23.964Z,99258.91
2023-02-22T15:52:58.169Z,99250.03
2023-02-22T15:55:29.203Z,99261.84
2023-02-22T15:58:01.762Z,99246.41
2023-02-22T16:00:36.386Z,99210.44
2023-02-22T16:03:05.860Z,99261.66
2023-02-22T16:05:40.436Z,99265.69
2023-02-22T16:08:17.956Z,99261.56
2023-02-22T16:10:54.399Z,99260.66
2023-02-22T16:13:32.946Z,99268.84
2023-02-22T16:16:03.091Z,99267.91
2023-02-22T16:18:34.078Z,99269.69
2023-02-22T16:21:07.623Z,99264.69
2023-02-22T16:23:45.527Z,99249.66
2023-02-22T16:26:22.874Z,99272.75
2023-02-22T16:28:53.315Z,99269.22
2023-02-22T16:31:22.607Z,99277.81
2023-02-22T16:33:51.256Z,99279.00
2023-02-22T16:36:22.555Z,99281.19
2023-02-22T16:38:51.833Z,99290.97
2023-02-22T16:41:20.450Z,99261.13
2023-02-22T16:43:51.267Z,99297.47
2023-02-22T16:46:20.542Z,99292.97
2023-02-22T16:48:48.705Z,99286.66
2023-02-22T16:51:24.072Z,99305.94
2023-02-22T16:53:54.363Z,99311.97
2023-02-22T16:56:29.765Z,99313.66
2023-02-22T16:59:02.277Z,99314.09
2023-02-22T17:01:30.223Z,99315.47
2023-02-22T17:03:58.128Z,99318.84
2023-02-22T17:06:29.231Z,99292.81
2023-02-22T17:08:57.169Z,99321.34
2023-02-22T17:11:25.147Z,99314.59
2023-02-22T17:14:01.163Z,99336.38
2023-02-22T17:16:29.154Z,99318.41
2023-02-22T17:18:57.438Z,99331.75
2023-02-22T17:21:25.493Z,99332.22
2023-02-22T17:23:53.429Z,99347.81
2023-02-22T17:26:21.345Z,99352.84
2023-02-22T17:28:49.287Z,99350.75
2023-02-22T17:31:23.801Z,99359.38
2023-02-22T17:33:52.410Z,99360.69
2023-02-22T17:36:20.996Z,99351.63
2023-02-22T17:38:50.035Z,99352.13
2023-02-22T17:41:18.304Z,99344.84
2023-02-22T17:43:46.286Z,99352.63
2023-02-22T17:46:14.302Z,99356.72
2023-02-22T17:48:43.621Z,99357.72
2023-02-22T17:51:13.168Z,99352.44
2023-02-22T17:53:41.505Z,99358.19
2023-02-22T17:56:12.428Z,99339.91
2023-02-22T17:58:41.162Z,99353.25
2023-02-22T18:01:24.595Z,99353.41
2023-02-22T18:03:54.721Z,99355.25
2023-02-22T18:06:25.322Z,99353.59
2023-02-22T18:08:56.221Z,99347.16
2023-02-22T18:11:26.518Z,99356.72
2023-02-22T18:13:55.297Z,99352.59
2023-02-22T18:16:25.528Z,99354.72
2023-02-22T18:18:55.355Z,99356.34
2023-02-22T18:21:23.455Z,99352.41
2023-02-22T18:23:51.428Z,99359.63
2023-02-22T18:26:21.892Z,99363.59
2023-02-22T18:28:50.186Z,99363.28
2023-02-22T18:31:21.635Z,99362.75
2023-02-22T18:33:52.032Z,99365.34
2023-02-22T18:36:23.309Z,99370.84
2023-02-22T18:38:53.154Z,99379.84
2023-02-22T18:41:25.189Z,99383.84
2023-02-22T18:43:55.307Z,99386.69
2023-02-22T18:46:25.208Z,99390.13
2023-02-22T18:48:55.113Z,99394.16
2023-02-22T18:51:25.138Z,99399.25
2023-02-22T18:53:57.045Z,99408.97
2023-02-22T18:56:29.808Z,99406.72
2023-02-22T18:59:00.798Z,99392.31
2023-02-22T19:01:29.864Z,99417.97
2023-02-22T19:03:58.144Z,99410.50
2023-02-22T19:06:27.685Z,99408.06
2023-02-22T19:08:55.701Z,99415.59
2023-02-22T19:11:25.683Z,99418.13
2023-02-22T19:13:55.436Z,99419.81
2023-02-22T19:16:25.236Z,99416.22
2023-02-22T19:18:57.397Z,99421.09
2023-02-22T19:21:27.428Z,99420.69
2023-02-22T19:23:55.749Z,99407.19
2023-02-22T19:26:25.123Z,99421.41
2023-02-22T19:28:55.091Z,99423.38
2023-02-22T19:31:26.440Z,99437.00
2023-02-22T19:33:54.657Z,99443.94
2023-02-22T19:36:24.125Z,99428.97
2023-02-22T19:38:53.433Z,99445.28
2023-02-22T19:41:23.462Z,99447.34
2023-02-22T19:43:55.826Z,99458.03
2023-02-22T19:46:24.991Z,99459.09
2023-02-22T19:48:55.311Z,99459.66
2023-02-22T19:51:26.274Z,99473.50
2023-02-22T19:53:58.856Z,99465.34
2023-02-22T19:56:28.285Z,99471.41
2023-02-22T19:58:57.609Z,99471.00
2023-02-22T20:01:26.897Z,99476.38
2023-02-22T20:03:59.790Z,99479.56
2023-02-22T20:06:29.989Z,99487.28
2023-02-22T20:08:59.289Z,99488.81
2023-02-22T20:11:28.499Z,99491.84
2023-02-22T20:13:56.650Z,99494.22
2023-02-22T20:16:24.875Z,99494.63
2023-02-22T20:18:54.510Z,99471.00
2023-02-22T20:21:30.820Z,99489.38
2023-02-22T20:24:00.115Z,99493.91
2023-02-22T20:26:30.395Z,99503.31
2023-02-22T20:28:59.465Z,99497.25
2023-02-22T20:31:29.512Z,99501.94
2023-02-22T20:34:00.094Z,99508.41
2023-02-22T20:36:29.595Z,99507.69
2023-02-22T20:39:00.316Z,99506.72
2023-02-22T20:41:29.924Z,99502.28
2023-02-22T20:43:58.894Z,99519.88
2023-02-22T20:46:28.207Z,99500.72
2023-02-22T20:48:56.687Z,99521.97
2023-02-22T20:51:25.053Z,99531.44
2023-02-22T20:53:53.634Z,99505.53
2023-02-22T20:56:25.098Z,99532.91
2023-02-22T20:58:53.356Z,99537.19
2023-02-22T21:01:22.628Z,99536.69
2023-02-22T21:03:51.432Z,99532.97
2023-02-22T21:06:21.987Z,99536.94
2023-02-22T21:08:55.514Z,99539.97
2023-02-22T21:11:26.429Z,99542.34
2023-02-22T21:13:54.465Z,99537.69
2023-02-22T21:16:25.080Z,99554.78
2023-02-22T21:18:54.086Z,99540.28
2023-02-22T21:21:22.538Z,99553.16
2023-02-22T21:23:52.360Z,99535.94
2023-02-22T21:26:23.564Z,99553.03
2023-02-22T21:28:53.253Z,99556.22
2023-02-22T21:31:23.684Z,99554.72
2023-02-22T21:33:53.367Z,99531.59
2023-02-22T21:36:25.404Z,99544.72
2023-02-22T21:38:55.825Z,99550.09
2023-02-22T21:41:27.505Z,99552.56
2023-02-22T21:43:58.541Z,99559.13
2023-02-22T21:46:29.041Z,99555.81
2023-02-22T21:48:58.835Z,99560.31
2023-02-22T21:51:31.589Z,99557.97
2023-02-22T21:54:02.153Z,99565.84
2023-02-22T21:56:32.468Z,99569.31
2023-02-22T21:59:03.802Z,99568.38
2023-02-22T22:01:33.949Z,99575.03
2023-02-22T22:04:02.914Z,99566.59
2023-02-22T22:06:32.634Z,99572.53
2023-02-22T22:09:00.960Z,99584.91
2023-02-22T22:11:30.629Z,99582.50
2023-02-22T22:13:59.734Z,99572.78
2023-02-22T22:16:30.294Z,99568.72
2023-02-22T22:18:58.379Z,99588.94
2023-02-22T22:21:26.908Z,99588.94
2023-02-22T22:23:56.356Z,99589.75
2023-02-22T22:26:26.164Z,99584.78
2023-02-22T22:28:57.518Z,99599.34
2023-02-22T22:31:26.986Z,99587.47
2023-02-22T22:33:57.406Z,99591.28
2023-02-22T22:36:27.398Z,99590.78
2023-02-22T22:38:57.506Z,99592.34
2023-02-22T22:41:28.202Z,99601.50
2023-02-22T22:43:56.977Z,99600.53
2023-02-22T22:46:25.032Z,99598.13
2023-02-22T22:48:52.926Z,99593.81
2023-02-22T22:51:22.988Z,99571.53
2023-02-22T22:53:52.043Z,99594.06
2023-02-22T22:56:25.981Z,99593.06
2023-02-22T22:58:55.499Z,99569.44
2023-02-22T23:01:27.356Z,99598.00
2023-02-22T23:03:59.842Z,99568.75
2023-02-22T23:06:33.134Z,99612.50
2023-02-22T23:09:10.307Z,99590.66
2023-02-22T23:11:44.414Z,99589.38
2023-02-22T23:14:13.743Z,99581.97
2023-02-22T23:16:42.838Z,99586.06
2023-02-22T23:19:11.152Z,99599.41
2023-02-22T23:21:43.177Z,99602.28
2023-02-22T23:24:15.177Z,99604.22
2023-02-22T23:26:48.349Z,99603.88
2023-02-22T23:29:16.519Z,99607.78
2023-02-22T23:31:47.928Z,99605.91
2023-02-22T23:34:16.944Z,99615.09
2023-02-22T23:36:46.857Z,99615.94
2023-02-22T23:39:16.192Z,99607.06
2023-02-22T23:41:44.262Z,99613.44
2023-02-22T23:44:17.587Z,99604.63
2023-02-22T23:46:48.626Z,99605.34
2023-02-22T23:49:20.532Z,99613.94
2023-02-22T23:51:50.428Z,99612.66
2023-02-22T23:54:20.461Z,99608.75
2023-02-22T23:56:56.511Z,99607.50
2023-02-22T23:59:25.337Z,99610.84
